createdAt,value
2016-12-28T00:00:15.619Z,0
2016-12-28T00:01:15.682Z,0
2016-12-28T00:02:15.725Z,0
2016-12-28T00:03:15.796Z,0
2016-12-28T00:04:15.842Z,0
2016-12-28T00:05:15.901Z,0
2016-12-28T00:06:15.959Z,0
2016-12-28T00:07:16.016Z,0
2016-12-28T00:08:16.074Z,0
2016-12-28T00:09:16.167Z,0
2016-12-28T00:10:16.191Z,0
2016-12-28T00:11:16.251Z,0
2016-12-28T00:12:16.297Z,0
2016-12-28T00:13:16.364Z,0
2016-12-28T00:14:16.426Z,0
2016-12-28T00:15:16.470Z,0
2016-12-28T00:16:16.541Z,0
2016-12-28T00:17:16.597Z,0
2016-12-28T00:18:16.647Z,0
2016-12-28T00:19:16.710Z,0
2016-12-28T00:20:16.761Z,0
2016-12-28T00:21:16.826Z,0
2016-12-28T00:22:16.881Z,0
2016-12-28T00:23:16.935Z,0
2016-12-28T00:24:17.306Z,0
2016-12-28T00:25:17.046Z,0
2016-12-28T00:26:17.098Z,0
2016-12-28T00:27:17.171Z,0
2016-12-28T00:28:17.223Z,0
2016-12-28T00:29:17.279Z,0
2016-12-28T00:30:17.333Z,0
2016-12-28T00:31:17.402Z,0
2016-12-28T00:32:17.452Z,0
2016-12-28T00:33:17.510Z,0
2016-12-28T00:34:17.561Z,0
2016-12-28T00:35:17.628Z,0
2016-12-28T00:36:17.686Z,0
2016-12-28T00:37:17.727Z,0
2016-12-28T00:38:17.800Z,0
2016-12-28T00:39:18.047Z,0
2016-12-28T00:40:17.900Z,0
2016-12-28T00:41:17.965Z,0
2016-12-28T00:42:18.017Z,0
2016-12-28T00:43:18.066Z,0
2016-12-28T00:44:18.136Z,0
2016-12-28T00:45:18.186Z,0
2016-12-28T00:46:18.239Z,0
2016-12-28T00:47:18.293Z,0
2016-12-28T00:48:18.362Z,0
2016-12-28T00:49:18.400Z,0
2016-12-28T00:50:18.470Z,0
2016-12-28T00:51:18.524Z,0
2016-12-28T00:52:18.583Z,0
2016-12-28T00:53:18.636Z,0
2016-12-28T00:54:18.709Z,0
2016-12-28T00:55:18.755Z,0
2016-12-28T00:56:18.801Z,0
2016-12-28T00:57:18.862Z,0
2016-12-28T00:58:18.911Z,0
2016-12-28T00:59:18.974Z,0
2016-12-28T01:00:19.053Z,0
2016-12-28T01:01:19.085Z,0
2016-12-28T01:02:19.177Z,0
2016-12-28T01:03:19.196Z,0
2016-12-28T01:04:19.256Z,0
2016-12-28T01:05:19.322Z,0
2016-12-28T01:06:19.389Z,0
2016-12-28T01:07:19.423Z,0
2016-12-28T01:08:19.485Z,0
2016-12-28T01:09:19.539Z,0
2016-12-28T01:10:19.592Z,0
2016-12-28T01:11:19.646Z,0
2016-12-28T01:12:19.697Z,0
2016-12-28T01:13:19.759Z,0
2016-12-28T01:14:19.818Z,0
2016-12-28T01:15:19.876Z,0
2016-12-28T01:16:19.933Z,0
2016-12-28T01:17:19.982Z,0
2016-12-28T01:18:20.038Z,0
2016-12-28T01:19:20.095Z,0
2016-12-28T01:20:20.158Z,0
2016-12-28T01:21:20.212Z,0
2016-12-28T01:22:20.260Z,0
2016-12-28T01:23:20.320Z,0
2016-12-28T01:24:20.373Z,0
2016-12-28T01:25:20.432Z,0
2016-12-28T01:26:20.490Z,0
2016-12-28T01:27:20.536Z,0
2016-12-28T01:28:20.599Z,0
2016-12-28T01:29:20.643Z,0
2016-12-28T01:30:20.706Z,0
2016-12-28T01:31:20.759Z,0
2016-12-28T01:32:20.831Z,0
2016-12-28T01:33:20.887Z,0
2016-12-28T01:34:20.940Z,0
2016-12-28T01:35:20.992Z,0
2016-12-28T01:36:21.046Z,0
2016-12-28T01:37:21.093Z,0
2016-12-28T01:38:21.145Z,0
2016-12-28T01:39:21.215Z,0
2016-12-28T01:40:21.276Z,0
2016-12-28T01:41:21.337Z,0
2016-12-28T01:42:21.377Z,0
2016-12-28T01:43:21.434Z,0
2016-12-28T01:44:21.492Z,0
2016-12-28T01:45:21.549Z,0
2016-12-28T01:46:21.611Z,0
2016-12-28T01:47:21.654Z,0
2016-12-28T01:48:21.711Z,0
2016-12-28T01:49:21.777Z,0
2016-12-28T01:50:21.821Z,0
2016-12-28T01:51:21.878Z,0
2016-12-28T01:52:21.934Z,0
2016-12-28T01:53:21.987Z,0
2016-12-28T01:54:22.040Z,0
2016-12-28T01:55:22.102Z,0
2016-12-28T01:56:22.166Z,0
2016-12-28T01:57:22.218Z,0
2016-12-28T01:58:22.260Z,0
2016-12-28T01:59:22.324Z,0
2016-12-28T02:00:22.383Z,0
2016-12-28T02:01:22.449Z,0
2016-12-28T02:02:22.495Z,0
2016-12-28T02:03:22.545Z,0
2016-12-28T02:04:22.615Z,0
2016-12-28T02:05:22.659Z,0
2016-12-28T02:06:22.716Z,0
2016-12-28T02:07:22.770Z,0
2016-12-28T02:08:22.827Z,0
2016-12-28T02:09:22.882Z,0
2016-12-28T02:10:22.932Z,0
2016-12-28T02:11:22.996Z,0
2016-12-28T02:12:23.043Z,0
2016-12-28T02:13:23.093Z,0
2016-12-28T02:14:23.161Z,0
2016-12-28T02:15:23.213Z,0
2016-12-28T02:16:23.261Z,0
2016-12-28T02:17:23.330Z,0
2016-12-28T02:18:23.372Z,0
2016-12-28T02:19:23.428Z,0
2016-12-28T02:20:23.489Z,0
2016-12-28T02:21:23.545Z,0
2016-12-28T02:22:23.605Z,0
2016-12-28T02:23:23.660Z,0
2016-12-28T02:24:23.722Z,0
2016-12-28T02:25:23.774Z,0
2016-12-28T02:26:23.860Z,0
2016-12-28T02:27:23.883Z,0
2016-12-28T02:28:23.935Z,0
2016-12-28T02:29:24.024Z,0
2016-12-28T02:30:24.049Z,0
2016-12-28T02:31:24.142Z,0
2016-12-28T02:32:24.168Z,0
2016-12-28T02:33:24.213Z,0
2016-12-28T02:34:24.264Z,0
2016-12-28T02:35:24.324Z,0
2016-12-28T02:36:24.372Z,0
2016-12-28T02:37:24.433Z,0
2016-12-28T02:38:24.492Z,0
2016-12-28T02:39:24.544Z,0
2016-12-28T02:40:24.605Z,0
2016-12-28T02:41:24.662Z,0
2016-12-28T02:42:24.711Z,0
2016-12-28T02:43:24.759Z,0
2016-12-28T02:44:24.827Z,0
2016-12-28T02:45:24.889Z,0
2016-12-28T02:46:24.947Z,0
2016-12-28T02:47:24.998Z,0
2016-12-28T02:48:25.043Z,0
2016-12-28T02:49:25.112Z,0
2016-12-28T02:50:25.153Z,0
2016-12-28T02:51:25.209Z,0
2016-12-28T02:52:25.268Z,0
2016-12-28T02:53:25.362Z,0
2016-12-28T02:54:25.374Z,0
2016-12-28T02:55:25.429Z,0
2016-12-28T02:56:25.493Z,0
2016-12-28T02:57:25.548Z,0
2016-12-28T02:58:25.607Z,0
2016-12-28T02:59:25.665Z,0
2016-12-28T03:00:25.719Z,0
2016-12-28T03:01:25.778Z,0
2016-12-28T03:02:25.821Z,0
2016-12-28T03:03:25.891Z,0
2016-12-28T03:04:25.935Z,0
2016-12-28T03:05:26.006Z,0
2016-12-28T03:06:26.062Z,0
2016-12-28T03:07:26.102Z,0
2016-12-28T03:08:26.172Z,0
2016-12-28T03:09:26.224Z,0
2016-12-28T03:10:26.281Z,0
2016-12-28T03:11:26.327Z,0
2016-12-28T03:12:26.381Z,0
2016-12-28T03:13:26.448Z,0
2016-12-28T03:14:26.493Z,0
2016-12-28T03:15:26.559Z,0
2016-12-28T03:16:26.618Z,0
2016-12-28T03:17:26.667Z,0
2016-12-28T03:18:26.724Z,0
2016-12-28T03:19:26.772Z,0
2016-12-28T03:20:26.827Z,0
2016-12-28T03:21:26.891Z,0
2016-12-28T03:22:26.942Z,0
2016-12-28T03:23:27.002Z,0
2016-12-28T03:24:27.046Z,0
2016-12-28T03:25:27.104Z,0
2016-12-28T03:26:27.161Z,0
2016-12-28T03:27:27.245Z,0
2016-12-28T03:28:27.290Z,0
2016-12-28T03:29:27.339Z,0
2016-12-28T03:30:27.397Z,0
2016-12-28T03:31:27.456Z,0
2016-12-28T03:32:27.502Z,0
2016-12-28T03:33:27.550Z,0
2016-12-28T03:34:27.613Z,0
2016-12-28T03:35:27.658Z,0
2016-12-28T03:36:27.726Z,0
2016-12-28T03:37:27.785Z,0
2016-12-28T03:38:27.840Z,0
2016-12-28T03:39:27.892Z,0
2016-12-28T03:40:27.981Z,0
2016-12-28T03:41:28.010Z,0
2016-12-28T03:42:28.055Z,0
2016-12-28T03:43:28.108Z,0
2016-12-28T03:44:28.171Z,0
2016-12-28T03:45:28.220Z,0
2016-12-28T03:46:28.272Z,0
2016-12-28T03:47:28.654Z,0
2016-12-28T03:48:28.398Z,0
2016-12-28T03:49:28.443Z,0
2016-12-28T03:50:28.507Z,0
2016-12-28T03:51:28.564Z,0
2016-12-28T03:52:28.621Z,0
2016-12-28T03:53:28.663Z,0
2016-12-28T03:54:28.723Z,0
2016-12-28T03:55:28.784Z,0
2016-12-28T03:56:28.848Z,0
2016-12-28T03:57:28.900Z,0
2016-12-28T03:58:28.952Z,0
2016-12-28T03:59:29.002Z,0
2016-12-28T04:00:29.061Z,0
2016-12-28T04:01:29.118Z,0
2016-12-28T04:02:29.170Z,0
2016-12-28T04:03:29.235Z,0
2016-12-28T04:04:29.280Z,0
2016-12-28T04:05:29.345Z,0
2016-12-28T04:06:29.393Z,0
2016-12-28T04:07:29.446Z,0
2016-12-28T04:08:29.667Z,0
2016-12-28T04:09:29.573Z,0
2016-12-28T04:10:29.652Z,0
2016-12-28T04:11:29.682Z,0
2016-12-28T04:12:29.732Z,0
2016-12-28T04:13:29.788Z,0
2016-12-28T04:14:29.836Z,0
2016-12-28T04:15:29.904Z,0
2016-12-28T04:16:29.951Z,0
2016-12-28T04:17:30.018Z,0
2016-12-28T04:18:30.102Z,0
2016-12-28T04:19:30.128Z,0
2016-12-28T04:20:30.182Z,0
2016-12-28T04:21:30.232Z,0
2016-12-28T04:22:30.294Z,0
2016-12-28T04:23:30.344Z,0
2016-12-28T04:24:30.405Z,0
2016-12-28T04:25:30.456Z,0
2016-12-28T04:26:30.516Z,0
2016-12-28T04:27:30.567Z,0
2016-12-28T04:28:30.629Z,0
2016-12-28T04:29:30.674Z,0
2016-12-28T04:30:30.736Z,0
2016-12-28T04:31:30.791Z,0
2016-12-28T04:32:30.853Z,0
2016-12-28T04:33:30.904Z,0
2016-12-28T04:34:31.259Z,0
2016-12-28T04:35:31.015Z,0
2016-12-28T04:36:31.072Z,0
2016-12-28T04:37:31.130Z,0
2016-12-28T04:38:31.190Z,0
2016-12-28T04:39:31.244Z,0
2016-12-28T04:40:31.303Z,0
2016-12-28T04:41:31.349Z,0
2016-12-28T04:42:31.417Z,0
2016-12-28T04:43:31.496Z,0
2016-12-28T04:44:31.522Z,0
2016-12-28T04:45:31.587Z,0
2016-12-28T04:46:31.622Z,0
2016-12-28T04:47:31.697Z,0
2016-12-28T04:48:31.749Z,0
2016-12-28T04:49:31.800Z,0
2016-12-28T04:50:31.850Z,0
2016-12-28T04:51:31.937Z,0
2016-12-28T04:52:31.959Z,0
2016-12-28T04:53:32.020Z,0
2016-12-28T04:54:32.080Z,0
2016-12-28T04:55:32.146Z,0
2016-12-28T04:56:32.190Z,0
2016-12-28T04:57:32.249Z,0
2016-12-28T04:58:32.305Z,0
2016-12-28T04:59:32.354Z,0
2016-12-28T05:00:32.425Z,0
2016-12-28T05:01:32.464Z,0
2016-12-28T05:02:32.536Z,0
2016-12-28T05:03:32.584Z,0
2016-12-28T05:04:32.644Z,0
2016-12-28T05:05:32.701Z,0
2016-12-28T05:06:32.754Z,0
2016-12-28T05:07:32.813Z,0
2016-12-28T05:08:32.868Z,0
2016-12-28T05:09:32.915Z,0
2016-12-28T05:10:32.978Z,0
2016-12-28T05:11:33.033Z,0
2016-12-28T05:12:33.116Z,0
2016-12-28T05:13:33.148Z,0
2016-12-28T05:14:33.199Z,0
2016-12-28T05:15:33.253Z,0
2016-12-28T05:16:33.316Z,0
2016-12-28T05:17:33.377Z,0
2016-12-28T05:18:33.429Z,0
2016-12-28T05:19:33.485Z,0
2016-12-28T05:20:33.541Z,0
2016-12-28T05:21:33.605Z,0
2016-12-28T05:22:33.645Z,0
2016-12-28T05:23:33.719Z,0
2016-12-28T05:24:33.774Z,0
2016-12-28T05:25:33.814Z,0
2016-12-28T05:26:33.888Z,0
2016-12-28T05:27:33.936Z,0
2016-12-28T05:28:33.987Z,0
2016-12-28T05:29:34.045Z,0
2016-12-28T05:30:34.101Z,0
2016-12-28T05:31:34.154Z,0
2016-12-28T05:32:34.209Z,0
2016-12-28T05:33:34.265Z,0
2016-12-28T05:34:34.325Z,0
2016-12-28T05:35:34.385Z,0
2016-12-28T05:36:34.425Z,0
2016-12-28T05:37:34.491Z,0
2016-12-28T05:38:34.542Z,0
2016-12-28T05:39:34.603Z,0
2016-12-28T05:40:34.656Z,0
2016-12-28T05:41:34.711Z,0
2016-12-28T05:42:34.765Z,0
2016-12-28T05:43:34.859Z,0
2016-12-28T05:44:34.885Z,0
2016-12-28T05:45:34.925Z,0
2016-12-28T05:46:34.988Z,0
2016-12-28T05:47:35.050Z,0
2016-12-28T05:48:35.101Z,0
2016-12-28T05:49:35.160Z,0
2016-12-28T05:50:35.217Z,0
2016-12-28T05:51:35.270Z,0
2016-12-28T05:52:35.341Z,0
2016-12-28T05:53:35.379Z,0
2016-12-28T05:54:35.439Z,0
2016-12-28T05:55:35.494Z,0
2016-12-28T05:56:35.549Z,0
2016-12-28T05:57:35.615Z,0
2016-12-28T05:58:35.664Z,0
2016-12-28T05:59:35.719Z,0
2016-12-28T06:00:35.770Z,0
2016-12-28T06:01:35.841Z,0
2016-12-28T06:02:35.893Z,0
2016-12-28T06:03:36.247Z,0
2016-12-28T06:04:36.010Z,0
2016-12-28T06:05:36.060Z,0
2016-12-28T06:06:36.117Z,0
2016-12-28T06:07:36.176Z,0
2016-12-28T06:08:36.219Z,0
2016-12-28T06:09:36.282Z,0
2016-12-28T06:10:36.350Z,0
2016-12-28T06:11:36.393Z,0
2016-12-28T06:12:36.459Z,0
2016-12-28T06:13:36.513Z,0
2016-12-28T06:14:36.553Z,0
2016-12-28T06:15:36.625Z,0
2016-12-28T06:16:36.685Z,0
2016-12-28T06:17:36.732Z,0
2016-12-28T06:18:36.785Z,0
2016-12-28T06:19:36.842Z,0
2016-12-28T06:20:36.900Z,0
2016-12-28T06:21:36.952Z,0
2016-12-28T06:22:37.002Z,0
2016-12-28T06:23:37.075Z,0
2016-12-28T06:24:37.134Z,0
2016-12-28T06:25:37.180Z,0
2016-12-28T06:26:37.231Z,0
2016-12-28T06:27:37.489Z,0
2016-12-28T06:28:37.560Z,0
2016-12-28T06:29:37.397Z,0
2016-12-28T06:30:37.459Z,0
2016-12-28T06:31:37.511Z,0
2016-12-28T06:32:37.579Z,0
2016-12-28T06:33:37.633Z,0
2016-12-28T06:34:37.687Z,0
2016-12-28T06:35:37.735Z,0
2016-12-28T06:36:37.808Z,4
2016-12-28T06:37:37.858Z,4
2016-12-28T06:38:37.919Z,4
2016-12-28T06:39:37.967Z,0
2016-12-28T06:40:38.022Z,4
2016-12-28T06:41:38.081Z,4
2016-12-28T06:42:38.137Z,4
2016-12-28T06:43:38.198Z,4
2016-12-28T06:44:38.250Z,8
2016-12-28T06:45:38.301Z,4
2016-12-28T06:46:38.356Z,8
2016-12-28T06:47:38.425Z,8
2016-12-28T06:48:38.468Z,12
2016-12-28T06:49:38.562Z,16
2016-12-28T06:50:38.582Z,16
2016-12-28T06:51:38.641Z,16
2016-12-28T06:52:38.705Z,16
2016-12-28T06:53:38.755Z,20
2016-12-28T06:54:39.020Z,24
2016-12-28T06:55:38.876Z,24
2016-12-28T06:56:38.933Z,28
2016-12-28T06:57:38.988Z,32
2016-12-28T06:58:39.032Z,32
2016-12-28T06:59:39.095Z,36
2016-12-28T07:00:39.148Z,44
2016-12-28T07:01:39.210Z,48
2016-12-28T07:02:39.570Z,60
2016-12-28T07:03:39.316Z,68
2016-12-28T07:04:39.384Z,84
2016-12-28T07:05:39.429Z,100
2016-12-28T07:06:39.499Z,120
2016-12-28T07:07:39.549Z,136
2016-12-28T07:08:39.612Z,160
2016-12-28T07:09:39.658Z,176
2016-12-28T07:10:39.712Z,196
2016-12-28T07:11:39.773Z,216
2016-12-28T07:12:39.825Z,236
2016-12-28T07:13:39.896Z,256
2016-12-28T07:14:39.938Z,288
2016-12-28T07:15:40.002Z,316
2016-12-28T07:16:40.044Z,348
2016-12-28T07:17:40.108Z,384
2016-12-28T07:18:40.170Z,416
2016-12-28T07:19:40.215Z,468
2016-12-28T07:20:40.283Z,488
2016-12-28T07:21:40.546Z,500
2016-12-28T07:22:40.387Z,516
2016-12-28T07:23:40.451Z,516
2016-12-28T07:24:40.495Z,512
2016-12-28T07:25:40.553Z,524
2016-12-28T07:26:40.612Z,536
2016-12-28T07:27:40.670Z,552
2016-12-28T07:28:40.720Z,568
2016-12-28T07:29:40.784Z,588
2016-12-28T07:30:40.830Z,604
2016-12-28T07:31:40.886Z,624
2016-12-28T07:32:40.943Z,648
2016-12-28T07:33:40.993Z,684
2016-12-28T07:34:41.052Z,712
2016-12-28T07:35:41.107Z,744
2016-12-28T07:36:41.171Z,764
2016-12-28T07:37:41.229Z,784
2016-12-28T07:38:41.280Z,808
2016-12-28T07:39:41.332Z,840
2016-12-28T07:40:41.396Z,868
2016-12-28T07:41:41.462Z,900
2016-12-28T07:42:41.507Z,932
2016-12-28T07:43:41.557Z,972
2016-12-28T07:44:41.624Z,1008
2016-12-28T07:45:41.672Z,1056
2016-12-28T07:46:41.739Z,1084
2016-12-28T07:47:41.981Z,1116
2016-12-28T07:48:42.040Z,1152
2016-12-28T07:49:41.916Z,1188
2016-12-28T07:50:41.956Z,1224
2016-12-28T07:51:42.008Z,1260
2016-12-28T07:52:42.062Z,1288
2016-12-28T07:53:42.125Z,1304
2016-12-28T07:54:42.178Z,1324
2016-12-28T07:55:42.238Z,1360
2016-12-28T07:56:42.287Z,1384
2016-12-28T07:57:42.354Z,1400
2016-12-28T07:58:42.401Z,1400
2016-12-28T07:59:42.470Z,1420
2016-12-28T08:00:42.513Z,1436
2016-12-28T08:01:42.575Z,1448
2016-12-28T08:02:42.635Z,1460
2016-12-28T08:03:42.679Z,1492
2016-12-28T08:04:42.746Z,1544
2016-12-28T08:05:42.799Z,1592
2016-12-28T08:06:42.863Z,1640
2016-12-28T08:07:42.914Z,1672
2016-12-28T08:08:42.977Z,1680
2016-12-28T08:09:43.021Z,1692
2016-12-28T08:10:43.081Z,1708
2016-12-28T08:11:43.126Z,1732
2016-12-28T08:12:43.195Z,1752
2016-12-28T08:13:43.251Z,1788
2016-12-28T08:14:43.514Z,1856
2016-12-28T08:15:43.365Z,1908
2016-12-28T08:16:43.412Z,1948
2016-12-28T08:17:43.465Z,2008
2016-12-28T08:18:43.528Z,2072
2016-12-28T08:19:43.579Z,2152
2016-12-28T08:20:43.626Z,2188
2016-12-28T08:21:43.702Z,2224
2016-12-28T08:22:43.754Z,2272
2016-12-28T08:23:43.829Z,2348
2016-12-28T08:24:43.860Z,2408
2016-12-28T08:25:43.909Z,2448
2016-12-28T08:26:43.978Z,2528
2016-12-28T08:27:44.025Z,2588
2016-12-28T08:28:44.087Z,2656
2016-12-28T08:29:44.139Z,2740
2016-12-28T08:30:44.187Z,2848
2016-12-28T08:31:44.255Z,2920
2016-12-28T08:32:44.313Z,3004
2016-12-28T08:33:44.360Z,2956
2016-12-28T08:34:44.417Z,3180
2016-12-28T08:35:44.475Z,3136
2016-12-28T08:36:44.536Z,3196
2016-12-28T08:37:44.588Z,3312
2016-12-28T08:38:44.639Z,3344
2016-12-28T08:39:44.703Z,3504
2016-12-28T08:40:44.752Z,3652
2016-12-28T08:41:44.806Z,3512
2016-12-28T08:42:44.867Z,3408
2016-12-28T08:43:44.917Z,3356
2016-12-28T08:44:44.973Z,3416
2016-12-28T08:45:45.021Z,3348
2016-12-28T08:46:45.089Z,3320
2016-12-28T08:47:45.134Z,3272
2016-12-28T08:48:45.195Z,3292
2016-12-28T08:49:45.248Z,3292
2016-12-28T08:50:45.305Z,3356
2016-12-28T08:51:45.667Z,3408
2016-12-28T08:52:45.413Z,3392
2016-12-28T08:53:45.465Z,3476
2016-12-28T08:54:45.531Z,3536
2016-12-28T08:55:45.595Z,3556
2016-12-28T08:56:45.653Z,3624
2016-12-28T08:57:45.700Z,3740
2016-12-28T08:58:45.747Z,3820
2016-12-28T08:59:45.812Z,3888
2016-12-28T09:00:45.874Z,4016
2016-12-28T09:01:45.924Z,4168
2016-12-28T09:02:45.985Z,4188
2016-12-28T09:03:46.031Z,4264
2016-12-28T09:04:46.098Z,4364
2016-12-28T09:05:46.145Z,4336
2016-12-28T09:06:46.195Z,4372
2016-12-28T09:07:46.261Z,4404
2016-12-28T09:08:46.316Z,4492
2016-12-28T09:09:46.366Z,4596
2016-12-28T09:10:46.432Z,4616
2016-12-28T09:11:46.484Z,4604
2016-12-28T09:12:46.538Z,4740
2016-12-28T09:13:46.599Z,4800
2016-12-28T09:14:46.644Z,4944
2016-12-28T09:15:46.715Z,5136
2016-12-28T09:16:46.771Z,5340
2016-12-28T09:17:46.826Z,5564
2016-12-28T09:18:46.867Z,5748
2016-12-28T09:19:46.939Z,5976
2016-12-28T09:20:46.987Z,6072
2016-12-28T09:21:47.056Z,6352
2016-12-28T09:22:47.109Z,7656
2016-12-28T09:23:47.167Z,10616
2016-12-28T09:24:47.214Z,19648
2016-12-28T09:25:47.281Z,26176
2016-12-28T09:26:47.325Z,31520
2016-12-28T09:27:47.399Z,35488
2016-12-28T09:28:47.447Z,34048
2016-12-28T09:29:47.507Z,31968
2016-12-28T09:30:47.567Z,28608
2016-12-28T09:31:47.625Z,20384
2016-12-28T09:32:47.679Z,20640
2016-12-28T09:33:47.730Z,19936
2016-12-28T09:34:47.790Z,22880
2016-12-28T09:35:47.854Z,14396
2016-12-28T09:36:47.906Z,16772
2016-12-28T09:37:47.969Z,20768
2016-12-28T09:38:48.327Z,28320
2016-12-28T09:39:48.076Z,38144
2016-12-28T09:40:48.140Z,37120
2016-12-28T09:41:48.188Z,37632
2016-12-28T09:42:48.254Z,34944
2016-12-28T09:43:48.309Z,39936
2016-12-28T09:44:48.352Z,38880
2016-12-28T09:45:48.414Z,36224
2016-12-28T09:46:48.471Z,33088
2016-12-28T09:47:48.523Z,32960
2016-12-28T09:48:48.895Z,7512
2016-12-28T09:49:48.642Z,39456
2016-12-28T09:50:48.694Z,42592
2016-12-28T09:51:48.756Z,39520
2016-12-28T09:52:48.813Z,34528
2016-12-28T09:53:48.871Z,28192
2016-12-28T09:54:48.926Z,25216
2016-12-28T09:55:48.980Z,25664
2016-12-28T09:56:49.043Z,26112
2016-12-28T09:57:49.092Z,28320
2016-12-28T09:58:49.155Z,32480
2016-12-28T09:59:49.215Z,37696
2016-12-28T10:00:49.322Z,42368
2016-12-28T10:01:49.321Z,46752
2016-12-28T10:02:49.379Z,52992
2016-12-28T10:03:49.436Z,53696
2016-12-28T10:04:49.504Z,53024
2016-12-28T10:05:49.539Z,51648
2016-12-28T10:06:49.614Z,50912
2016-12-28T10:07:49.670Z,50784
2016-12-28T10:08:49.721Z,50080
2016-12-28T10:09:49.785Z,51008
2016-12-28T10:10:49.830Z,49696
2016-12-28T10:11:49.888Z,50528
2016-12-28T10:12:49.959Z,51616
2016-12-28T10:13:50.006Z,51776
2016-12-28T10:14:50.072Z,52384
2016-12-28T10:15:50.129Z,51936
2016-12-28T10:16:50.169Z,52704
2016-12-28T10:17:50.244Z,53632
2016-12-28T10:18:50.286Z,55584
2016-12-28T10:19:50.347Z,57152
2016-12-28T10:20:50.411Z,58656
2016-12-28T10:21:50.469Z,58016
2016-12-28T10:22:50.520Z,59520
2016-12-28T10:23:50.576Z,60224
2016-12-28T10:24:50.638Z,61600
2016-12-28T10:25:50.695Z,59520
2016-12-28T10:26:50.747Z,59584
2016-12-28T10:27:50.801Z,58208
2016-12-28T10:28:50.871Z,58016
2016-12-28T10:29:50.923Z,58720
2016-12-28T10:30:51.009Z,62368
2016-12-28T10:31:51.043Z,60096
2016-12-28T10:32:51.092Z,59232
2016-12-28T10:33:51.160Z,60928
2016-12-28T10:34:51.209Z,59392
2016-12-28T10:35:51.271Z,59040
2016-12-28T10:36:51.329Z,57408
2016-12-28T10:37:51.379Z,57984
2016-12-28T10:38:51.427Z,56288
2016-12-28T10:39:51.502Z,54976
2016-12-28T10:40:51.557Z,57088
2016-12-28T10:41:51.615Z,59104
2016-12-28T10:42:51.661Z,60800
2016-12-28T10:43:51.736Z,58912
2016-12-28T10:44:51.789Z,58464
2016-12-28T10:45:51.828Z,60576
2016-12-28T10:46:51.895Z,56672
2016-12-28T10:47:51.959Z,58560
2016-12-28T10:48:52.019Z,59456
2016-12-28T10:49:52.075Z,57120
2016-12-28T10:50:52.122Z,57920
2016-12-28T10:51:52.495Z,57216
2016-12-28T10:52:52.239Z,57952
2016-12-28T10:53:52.308Z,60480
2016-12-28T10:54:52.346Z,59424
2016-12-28T10:55:52.420Z,59072
2016-12-28T10:56:52.471Z,59968
2016-12-28T10:57:52.522Z,58016
2016-12-28T10:58:52.585Z,59232
2016-12-28T10:59:52.642Z,57824
2016-12-28T11:00:52.703Z,57024
2016-12-28T11:01:52.760Z,59872
2016-12-28T11:02:52.818Z,62560
2016-12-28T11:03:52.876Z,60736
2016-12-28T11:04:52.932Z,60704
2016-12-28T11:05:52.986Z,61120
2016-12-28T11:06:53.039Z,60416
2016-12-28T11:07:53.106Z,59424
2016-12-28T11:08:53.164Z,59360
2016-12-28T11:09:53.230Z,59264
2016-12-28T11:10:53.270Z,57440
2016-12-28T11:11:53.346Z,57120
2016-12-28T11:12:53.395Z,60160
2016-12-28T11:13:53.461Z,63424
2016-12-28T11:14:53.521Z,62048
2016-12-28T11:15:53.575Z,60768
2016-12-28T11:16:53.622Z,63552
2016-12-28T11:17:53.683Z,61024
2016-12-28T11:18:53.748Z,50336
2016-12-28T11:19:53.811Z,58016
2016-12-28T11:20:53.861Z,54144
2016-12-28T11:21:53.920Z,53984
2016-12-28T11:22:53.982Z,51712
2016-12-28T11:23:54.032Z,50560
2016-12-28T11:24:54.096Z,45216
2016-12-28T11:25:54.150Z,53696
2016-12-28T11:26:54.217Z,51424
2016-12-28T11:27:54.275Z,50144
2016-12-28T11:28:54.336Z,50016
2016-12-28T11:29:54.389Z,53952
2016-12-28T11:30:54.446Z,45728
2016-12-28T11:31:54.493Z,49216
2016-12-28T11:32:54.565Z,42272
2016-12-28T11:33:54.624Z,43424
2016-12-28T11:34:54.970Z,35776
2016-12-28T11:35:54.723Z,42784
2016-12-28T11:36:54.790Z,42432
2016-12-28T11:37:54.850Z,43840
2016-12-28T11:38:54.898Z,44320
2016-12-28T11:39:54.973Z,51456
2016-12-28T11:40:55.030Z,54976
2016-12-28T11:41:55.075Z,49984
2016-12-28T11:42:55.141Z,49056
2016-12-28T11:43:55.189Z,51488
2016-12-28T11:44:55.253Z,54944
2016-12-28T11:45:55.313Z,52704
2016-12-28T11:46:55.692Z,49984
2016-12-28T11:47:55.427Z,51200
2016-12-28T11:48:55.472Z,61120
2016-12-28T11:49:55.534Z,60928
2016-12-28T11:50:55.598Z,59488
2016-12-28T11:51:55.652Z,62720
2016-12-28T11:52:55.709Z,60960
2016-12-28T11:53:55.775Z,62688
2016-12-28T11:54:55.820Z,58208
2016-12-28T11:55:55.886Z,58304
2016-12-28T11:56:55.941Z,54656
2016-12-28T11:57:55.999Z,57536
2016-12-28T11:58:56.054Z,48160
2016-12-28T11:59:56.106Z,43936
2016-12-28T12:00:56.167Z,40320
2016-12-28T12:01:56.216Z,41152
2016-12-28T12:02:56.280Z,33632
2016-12-28T12:03:56.326Z,32256
2016-12-28T12:04:56.414Z,30432
2016-12-28T12:05:56.458Z,27136
2016-12-28T12:06:56.511Z,25472
2016-12-28T12:07:56.586Z,31296
2016-12-28T12:08:56.616Z,31200
2016-12-28T12:09:56.670Z,34208
2016-12-28T12:10:56.738Z,39872
2016-12-28T12:11:56.791Z,43424
2016-12-28T12:12:56.853Z,43776
2016-12-28T12:13:56.903Z,48032
2016-12-28T12:14:56.969Z,51712
2016-12-28T12:15:57.019Z,57280
2016-12-28T12:16:57.092Z,59744
2016-12-28T12:17:57.135Z,57408
2016-12-28T12:18:57.191Z,58784
2016-12-28T12:19:57.261Z,51808
2016-12-28T12:20:57.303Z,55584
2016-12-28T12:21:57.364Z,52800
2016-12-28T12:22:57.419Z,48480
2016-12-28T12:23:57.470Z,55392
2016-12-28T12:24:57.538Z,53504
2016-12-28T12:25:57.596Z,55488
2016-12-28T12:26:57.643Z,55648
2016-12-28T12:27:57.713Z,45184
2016-12-28T12:28:57.761Z,46528
2016-12-28T12:29:57.850Z,41408
2016-12-28T12:30:57.876Z,33920
2016-12-28T12:31:57.941Z,28416
2016-12-28T12:32:58.005Z,43616
2016-12-28T12:33:58.058Z,51200
2016-12-28T12:34:58.113Z,42112
2016-12-28T12:35:58.177Z,51904
2016-12-28T12:36:58.232Z,47520
2016-12-28T12:37:58.283Z,46272
2016-12-28T12:38:58.335Z,52032
2016-12-28T12:39:58.386Z,41024
2016-12-28T12:40:58.454Z,55200
2016-12-28T12:41:58.516Z,50976
2016-12-28T12:42:58.563Z,49536
2016-12-28T12:43:59.021Z,51648
2016-12-28T12:44:58.676Z,55904
2016-12-28T12:45:58.739Z,54176
2016-12-28T12:46:58.789Z,53792
2016-12-28T12:47:58.853Z,50560
2016-12-28T12:48:58.910Z,47392
2016-12-28T12:49:58.964Z,32864
2016-12-28T12:50:59.023Z,39040
2016-12-28T12:51:59.087Z,31328
2016-12-28T12:52:59.147Z,44896
2016-12-28T12:53:59.193Z,52576
2016-12-28T12:54:59.264Z,39520
2016-12-28T12:55:59.311Z,34592
2016-12-28T12:56:59.356Z,28448
2016-12-28T12:57:59.448Z,34048
2016-12-28T12:58:59.474Z,40384
2016-12-28T12:59:59.547Z,41056
2016-12-28T13:00:59.599Z,46624
2016-12-28T13:01:59.651Z,49696
2016-12-28T13:02:59.715Z,46400
2016-12-28T13:03:59.766Z,43008
2016-12-28T13:04:59.822Z,38208
2016-12-28T13:05:59.890Z,35200
2016-12-28T13:06:59.935Z,35648
2016-12-28T13:07:59.998Z,39360
2016-12-28T13:09:00.054Z,35168
2016-12-28T13:10:00.114Z,24992
2016-12-28T13:11:00.181Z,38784
2016-12-28T13:12:00.222Z,27552
2016-12-28T13:13:00.277Z,36960
2016-12-28T13:14:00.335Z,35936
2016-12-28T13:15:00.394Z,27168
2016-12-28T13:16:00.439Z,36576
2016-12-28T13:17:00.497Z,24832
2016-12-28T13:18:00.561Z,19712
2016-12-28T13:19:00.621Z,22912
2016-12-28T13:20:00.671Z,22688
2016-12-28T13:21:00.737Z,24544
2016-12-28T13:22:00.793Z,21536
2016-12-28T13:23:00.839Z,21440
2016-12-28T13:24:00.908Z,19232
2016-12-28T13:25:00.964Z,15236
2016-12-28T13:26:01.025Z,17524
2016-12-28T13:27:01.081Z,16716
2016-12-28T13:28:01.139Z,13368
2016-12-28T13:29:01.190Z,14156
2016-12-28T13:30:01.247Z,16744
2016-12-28T13:31:01.307Z,14636
2016-12-28T13:32:01.351Z,14048
2016-12-28T13:33:01.423Z,13816
2016-12-28T13:34:01.470Z,17048
2016-12-28T13:35:01.538Z,18528
2016-12-28T13:36:01.594Z,16924
2016-12-28T13:37:01.639Z,18080
2016-12-28T13:38:01.701Z,22720
2016-12-28T13:39:01.755Z,25824
2016-12-28T13:40:01.805Z,22048
2016-12-28T13:41:01.877Z,20864
2016-12-28T13:42:01.931Z,22624
2016-12-28T13:43:01.984Z,15496
2016-12-28T13:44:02.039Z,14692
2016-12-28T13:45:02.103Z,16096
2016-12-28T13:46:02.164Z,16184
2016-12-28T13:47:02.213Z,14880
2016-12-28T13:48:02.275Z,14352
2016-12-28T13:49:02.333Z,14296
2016-12-28T13:50:02.395Z,16784
2016-12-28T13:51:02.450Z,12300
2016-12-28T13:52:02.494Z,13080
2016-12-28T13:53:02.554Z,14428